createdAt,value
2019-05-23T00:00:32.848Z,11.40
2019-05-23T00:03:02.860Z,11.40
2019-05-23T00:05:32.990Z,11.30
2019-05-23T00:08:02.476Z,11.30
2019-05-23T00:10:32.526Z,11.20
2019-05-23T00:13:01.097Z,11.30
2019-05-23T00:15:32.750Z,11.20
2019-05-23T00:18:01.901Z,11.10
2019-05-23T00:20:32.722Z,11.10
2019-05-23T00:23:01.266Z,11.10
2019-05-23T00:25:31.137Z,11.00
2019-05-23T00:28:00.284Z,11.00
2019-05-23T00:30:33.440Z,10.90
2019-05-23T00:33:03.187Z,10.90
2019-05-23T00:35:32.164Z,10.80
2019-05-23T00:38:02.439Z,10.80
2019-05-23T00:40:31.227Z,10.80
2019-05-23T00:42:59.820Z,10.70
2019-05-23T00:45:29.946Z,10.70
2019-05-23T00:47:59.328Z,10.70
2019-05-23T00:50:28.131Z,10.60
2019-05-23T00:52:58.164Z,10.70
2019-05-23T00:55:28.224Z,10.60
2019-05-23T00:57:58.449Z,10.60
2019-05-23T01:00:28.457Z,10.60
2019-05-23T01:02:57.395Z,10.50
2019-05-23T01:05:28.039Z,10.40
2019-05-23T01:07:57.664Z,10.40
2019-05-23T01:10:26.756Z,10.40
2019-05-23T01:12:55.517Z,10.40
2019-05-23T01:15:24.590Z,10.40
2019-05-23T01:17:53.881Z,10.40
2019-05-23T01:20:25.121Z,10.30
2019-05-23T01:22:55.532Z,10.30
2019-05-23T01:25:24.652Z,10.30
2019-05-23T01:27:54.296Z,10.30
2019-05-23T01:30:39.421Z,10.30
2019-05-23T01:33:08.169Z,10.30
2019-05-23T01:35:37.467Z,10.20
2019-05-23T01:38:07.733Z,10.20
2019-05-23T01:40:36.894Z,10.20
2019-05-23T01:43:05.383Z,10.10
2019-05-23T01:45:34.343Z,10.10
2019-05-23T01:48:03.972Z,10.10
2019-05-23T01:50:33.010Z,10.00
2019-05-23T01:53:01.703Z,10.00
2019-05-23T01:55:30.116Z,9.90
2019-05-23T01:57:58.875Z,9.90
2019-05-23T02:00:29.032Z,9.90
2019-05-23T02:02:57.698Z,9.90
2019-05-23T02:05:26.546Z,9.90
2019-05-23T02:07:56.645Z,9.90
2019-05-23T02:10:25.492Z,9.90
2019-05-23T02:12:54.096Z,9.90
2019-05-23T02:15:22.739Z,9.90
2019-05-23T02:17:52.716Z,9.90
2019-05-23T02:20:22.349Z,9.90
2019-05-23T02:22:51.525Z,9.80
2019-05-23T02:25:21.532Z,9.80
2019-05-23T02:27:50.856Z,9.80
2019-05-23T02:30:33.906Z,9.80
2019-05-23T02:32:52.034Z,9.70
2019-05-23T02:35:21.333Z,9.70
2019-05-23T02:37:51.417Z,9.70
2019-05-23T02:40:39.083Z,9.70
2019-05-23T02:43:28.290Z,9.60
2019-05-23T02:45:59.086Z,9.60
2019-05-23T02:48:31.242Z,9.60
2019-05-23T02:51:03.267Z,9.50
2019-05-23T02:53:35.209Z,9.50
2019-05-23T02:56:07.959Z,9.50
2019-05-23T02:59:17.647Z,9.50
2019-05-23T03:01:59.606Z,9.40
2019-05-23T03:04:30.822Z,9.40
2019-05-23T03:07:02.752Z,9.40
2019-05-23T03:09:36.647Z,9.30
2019-05-23T03:12:07.858Z,9.30
2019-05-23T03:14:37.900Z,9.30
2019-05-23T03:17:11.178Z,9.30
2019-05-23T03:19:44.702Z,9.30
2019-05-23T03:22:31.628Z,9.30
2019-05-23T03:25:04.346Z,9.30
2019-05-23T03:27:35.844Z,9.20
2019-05-23T03:30:08.480Z,9.20
2019-05-23T03:32:44.321Z,9.20
2019-05-23T03:35:14.530Z,9.20
2019-05-23T03:37:44.259Z,9.20
2019-05-23T03:40:15.372Z,9.20
2019-05-23T03:42:46.013Z,9.10
2019-05-23T03:45:15.119Z,9.10
2019-05-23T03:47:45.921Z,9.10
2019-05-23T03:50:15.030Z,9.10
2019-05-23T03:52:43.810Z,9.20
2019-05-23T03:55:13.254Z,9.20
2019-05-23T03:57:41.936Z,9.20
2019-05-23T04:00:14.130Z,9.20
2019-05-23T04:02:44.358Z,9.20
2019-05-23T04:05:12.878Z,9.10
2019-05-23T04:07:42.590Z,9.20
2019-05-23T04:10:12.716Z,9.20
2019-05-23T04:12:41.636Z,9.20
2019-05-23T04:15:11.069Z,9.20
2019-05-23T04:17:39.843Z,9.20
2019-05-23T04:20:09.631Z,9.30
2019-05-23T04:22:38.045Z,9.30
2019-05-23T04:25:09.775Z,9.30
2019-05-23T04:27:38.466Z,9.30
2019-05-23T04:30:08.883Z,9.40
2019-05-23T04:32:37.895Z,9.40
2019-05-23T04:35:06.882Z,9.40
2019-05-23T04:37:36.579Z,9.50
2019-05-23T04:40:11.257Z,9.50
2019-05-23T04:42:40.014Z,9.60
2019-05-23T04:45:08.874Z,9.60
2019-05-23T04:47:38.232Z,9.70
2019-05-23T04:50:14.190Z,9.80
2019-05-23T04:52:42.868Z,9.80
2019-05-23T04:55:12.802Z,9.90
2019-05-23T04:57:42.729Z,9.90
2019-05-23T05:00:16.192Z,10.00
2019-05-23T05:02:45.589Z,10.10
2019-05-23T05:05:14.773Z,10.20
2019-05-23T05:07:43.996Z,10.30
2019-05-23T05:10:15.382Z,10.40
2019-05-23T05:12:44.071Z,10.50
2019-05-23T05:15:13.440Z,10.50
2019-05-23T05:17:41.943Z,10.60
2019-05-23T05:20:12.099Z,10.70
2019-05-23T05:22:40.914Z,10.90
2019-05-23T05:25:10.666Z,11.00
2019-05-23T05:27:40.370Z,11.10
2019-05-23T05:30:09.537Z,11.20
2019-05-23T05:32:44.555Z,11.30
2019-05-23T05:35:09.401Z,11.60
2019-05-23T05:37:38.325Z,12.50
2019-05-23T05:40:07.999Z,13.60
2019-05-23T05:42:38.674Z,14.90
2019-05-23T05:45:10.441Z,16.20
2019-05-23T05:47:39.072Z,17.50
2019-05-23T05:50:10.780Z,18.60
2019-05-23T05:52:40.029Z,19.30
2019-05-23T05:55:09.088Z,19.80
2019-05-23T05:57:37.850Z,20.50
2019-05-23T06:00:12.830Z,21.20
2019-05-23T06:02:40.612Z,21.90
2019-05-23T06:05:11.120Z,22.50
2019-05-23T06:07:41.569Z,23.00
2019-05-23T06:10:12.569Z,23.70
2019-05-23T06:12:41.057Z,24.40
2019-05-23T06:15:10.390Z,24.90
2019-05-23T06:17:42.247Z,25.20
2019-05-23T06:20:11.113Z,25.50
2019-05-23T06:22:40.510Z,25.90
2019-05-23T06:25:10.138Z,26.10
2019-05-23T06:27:40.431Z,26.50
2019-05-23T06:30:12.463Z,26.70
2019-05-23T06:32:41.233Z,26.80
2019-05-23T06:35:09.721Z,27.00
2019-05-23T06:37:38.371Z,27.30
2019-05-23T06:40:08.196Z,27.40
2019-05-23T06:42:36.950Z,27.70
2019-05-23T06:45:10.438Z,27.80
2019-05-23T06:47:39.541Z,27.90
2019-05-23T06:50:15.503Z,28.00
2019-05-23T06:52:44.004Z,28.10
2019-05-23T06:55:12.493Z,28.00
2019-05-23T06:57:40.959Z,28.30
2019-05-23T07:00:09.987Z,28.40
2019-05-23T07:02:40.109Z,28.40
2019-05-23T07:05:08.872Z,28.60
2019-05-23T07:07:37.840Z,29.00
2019-05-23T07:10:07.972Z,29.00
2019-05-23T07:12:37.319Z,29.00
2019-05-23T07:15:07.447Z,29.20
2019-05-23T07:17:35.943Z,29.10
2019-05-23T07:20:07.435Z,29.00
2019-05-23T07:22:36.023Z,29.00
2019-05-23T07:25:07.752Z,29.20
2019-05-23T07:27:36.633Z,29.30
2019-05-23T07:30:23.218Z,29.20
2019-05-23T07:32:52.726Z,29.10
2019-05-23T07:35:40.580Z,28.80
2019-05-23T07:38:08.988Z,28.70
2019-05-23T07:40:37.416Z,28.70
2019-05-23T07:43:07.611Z,28.60
2019-05-23T07:45:44.010Z,28.60
2019-05-23T07:48:13.341Z,28.70
2019-05-23T07:50:41.953Z,29.00
2019-05-23T07:53:12.299Z,29.10
2019-05-23T07:55:48.508Z,29.00
2019-05-23T07:58:18.393Z,28.90
2019-05-23T08:00:54.387Z,28.90
2019-05-23T08:03:25.267Z,29.20
2019-05-23T08:05:54.148Z,29.50
2019-05-23T08:08:22.687Z,29.50
2019-05-23T08:10:51.167Z,29.50
2019-05-23T08:13:19.603Z,29.70
2019-05-23T08:15:48.481Z,29.50
2019-05-23T08:18:17.028Z,29.30
2019-05-23T08:20:46.472Z,29.40
2019-05-23T08:23:15.846Z,29.50
2019-05-23T08:25:44.340Z,29.60
2019-05-23T08:28:13.591Z,29.60
2019-05-23T08:30:42.153Z,29.60
2019-05-23T08:33:12.440Z,29.40
2019-05-23T08:35:40.948Z,29.20
2019-05-23T08:38:10.070Z,29.10
2019-05-23T08:40:39.572Z,29.20
2019-05-23T08:43:08.152Z,29.20
2019-05-23T08:45:37.011Z,29.20
2019-05-23T08:48:06.700Z,29.20
2019-05-23T08:50:35.541Z,29.30
2019-05-23T08:53:03.941Z,29.30
2019-05-23T08:55:33.171Z,29.30
2019-05-23T08:58:02.516Z,29.40
2019-05-23T09:00:32.680Z,29.60
2019-05-23T09:03:03.577Z,29.70
2019-05-23T09:05:36.823Z,29.70
2019-05-23T09:08:06.457Z,29.60
2019-05-23T09:10:36.166Z,29.60
2019-05-23T09:13:04.796Z,29.40
2019-05-23T09:15:33.216Z,29.00
2019-05-23T09:18:01.715Z,28.70
2019-05-23T09:20:30.558Z,28.50
2019-05-23T09:22:58.969Z,28.30
2019-05-23T09:25:27.414Z,28.10
2019-05-23T09:27:55.996Z,27.80
2019-05-23T09:30:24.969Z,27.40
2019-05-23T09:32:53.385Z,27.00
2019-05-23T09:35:22.474Z,26.90
2019-05-23T09:37:51.093Z,26.60
2019-05-23T09:40:19.661Z,26.50
2019-05-23T09:42:48.067Z,26.30
2019-05-23T09:45:17.738Z,26.30
2019-05-23T09:47:50.728Z,26.50
2019-05-23T09:50:18.392Z,26.70
2019-05-23T09:52:46.965Z,26.90
2019-05-23T09:55:15.713Z,27.10
2019-05-23T09:57:44.503Z,27.20
2019-05-23T10:00:15.998Z,27.30
2019-05-23T10:02:44.738Z,27.20
2019-05-23T10:05:13.479Z,27.20
2019-05-23T10:07:42.075Z,27.20
2019-05-23T10:10:11.670Z,26.70
2019-05-23T10:12:40.196Z,26.30
2019-05-23T10:15:11.589Z,26.10
2019-05-23T10:17:40.129Z,26.20
2019-05-23T10:20:09.630Z,26.20
2019-05-23T10:22:38.062Z,26.10
2019-05-23T10:25:08.382Z,25.90
2019-05-23T10:27:36.854Z,25.80
2019-05-23T10:30:11.976Z,25.80
2019-05-23T10:32:40.446Z,25.60
2019-05-23T10:35:09.818Z,25.40
2019-05-23T10:37:38.273Z,25.30
2019-05-23T10:40:08.329Z,25.40
2019-05-23T10:42:37.814Z,25.50
2019-05-23T10:45:09.425Z,25.80
2019-05-23T10:47:37.884Z,25.70
2019-05-23T10:50:09.910Z,25.60
2019-05-23T10:52:38.606Z,25.70
2019-05-23T10:55:07.630Z,25.90
2019-05-23T10:57:37.297Z,25.80
2019-05-23T11:00:09.886Z,25.70
2019-05-23T11:02:39.203Z,25.60
2019-05-23T11:05:12.960Z,25.70
2019-05-23T11:07:39.404Z,25.80
2019-05-23T11:10:08.065Z,25.90
2019-05-23T11:12:37.153Z,25.90
2019-05-23T11:15:09.043Z,26.00
2019-05-23T11:17:38.029Z,25.90
2019-05-23T11:20:08.464Z,26.00
2019-05-23T11:22:36.882Z,26.20
2019-05-23T11:25:08.478Z,26.10
2019-05-23T11:27:37.051Z,26.00
2019-05-23T11:30:12.166Z,26.00
2019-05-23T11:32:40.898Z,26.00
2019-05-23T11:35:09.594Z,26.00
2019-05-23T11:37:41.350Z,26.10
2019-05-23T11:40:08.860Z,26.10
2019-05-23T11:42:37.529Z,25.90
2019-05-23T11:45:07.183Z,26.00
2019-05-23T11:47:35.875Z,26.10
2019-05-23T11:50:05.946Z,26.30
2019-05-23T11:52:34.420Z,26.30
2019-05-23T11:55:03.867Z,26.20
2019-05-23T11:57:32.628Z,26.30
2019-05-23T12:00:01.878Z,26.20
2019-05-23T12:02:31.951Z,26.20
2019-05-23T12:05:02.373Z,26.20
2019-05-23T12:07:30.782Z,26.20
2019-05-23T12:09:59.292Z,26.10
2019-05-23T12:12:27.835Z,26.00
2019-05-23T12:14:56.587Z,26.10
2019-05-23T12:17:26.419Z,26.20
2019-05-23T12:19:55.223Z,26.30
2019-05-23T12:22:24.110Z,26.40
2019-05-23T12:24:52.602Z,26.50
2019-05-23T12:27:21.011Z,26.70
2019-05-23T12:29:49.410Z,26.70
2019-05-23T12:32:17.901Z,26.50
2019-05-23T12:35:08.061Z,26.40
2019-05-23T12:37:19.564Z,26.60
2019-05-23T12:39:46.654Z,26.70
2019-05-23T12:42:15.119Z,26.70
2019-05-23T12:44:43.590Z,26.90
2019-05-23T12:47:13.705Z,26.90
2019-05-23T12:49:43.774Z,26.60
2019-05-23T12:52:12.943Z,26.30
2019-05-23T12:54:41.530Z,26.10
2019-05-23T12:57:10.262Z,25.90
2019-05-23T12:59:38.678Z,25.80
2019-05-23T13:02:09.085Z,25.90
2019-05-23T13:04:37.553Z,26.20
2019-05-23T13:07:06.173Z,26.50
2019-05-23T13:09:34.946Z,26.60
2019-05-23T13:12:03.374Z,26.70
2019-05-23T13:14:32.559Z,26.80
2019-05-23T13:17:01.797Z,27.00
2019-05-23T13:19:30.466Z,27.10
2019-05-23T13:21:58.967Z,27.20
2019-05-23T13:24:28.247Z,27.20
2019-05-23T13:26:56.820Z,27.30
2019-05-23T13:29:26.175Z,27.20
2019-05-23T13:31:54.747Z,27.40
2019-05-23T13:34:23.330Z,27.30
2019-05-23T13:36:51.830Z,27.20
2019-05-23T13:39:21.350Z,27.10
2019-05-23T13:41:50.071Z,27.00
2019-05-23T13:44:33.013Z,26.90
2019-05-23T13:46:49.040Z,26.80
2019-05-23T13:49:18.000Z,26.70
2019-05-23T13:51:46.892Z,26.60
2019-05-23T13:54:15.424Z,26.40
2019-05-23T13:56:47.608Z,26.20
2019-05-23T13:59:14.289Z,26.20
2019-05-23T14:01:43.022Z,26.40
2019-05-23T14:04:11.518Z,26.40
2019-05-23T14:06:40.008Z,26.40
2019-05-23T14:09:09.204Z,26.20
2019-05-23T14:11:38.547Z,26.00
2019-05-23T14:14:07.508Z,25.90
2019-05-23T14:16:38.059Z,25.90
2019-05-23T14:19:06.813Z,26.00
2019-05-23T14:21:36.189Z,26.10
2019-05-23T14:24:05.946Z,26.10
2019-05-23T14:26:36.324Z,26.10
2019-05-23T14:29:04.824Z,26.20
2019-05-23T14:31:37.586Z,26.10
2019-05-23T14:34:08.377Z,26.20
2019-05-23T14:36:54.039Z,26.20
2019-05-23T14:39:24.105Z,26.10
2019-05-23T14:42:06.355Z,25.90
2019-05-23T14:44:34.900Z,25.70
2019-05-23T14:47:20.084Z,25.50
2019-05-23T14:50:06.701Z,25.50
2019-05-23T14:52:36.752Z,25.50
2019-05-23T14:55:10.388Z,25.50
2019-05-23T14:57:39.550Z,25.60
2019-05-23T15:00:08.758Z,25.80
2019-05-23T15:02:37.262Z,25.80
2019-05-23T15:05:09.772Z,25.90
2019-05-23T15:07:38.223Z,25.90
2019-05-23T15:10:07.825Z,25.80
2019-05-23T15:12:36.301Z,25.70
2019-05-23T15:15:06.513Z,25.60
2019-05-23T15:17:34.923Z,25.60
2019-05-23T15:20:04.768Z,25.60
2019-05-23T15:22:33.257Z,25.50
2019-05-23T15:25:01.683Z,25.60
2019-05-23T15:27:33.102Z,25.70
2019-05-23T15:30:00.313Z,25.80
2019-05-23T15:32:29.055Z,25.80
2019-05-23T15:34:57.528Z,25.80
2019-05-23T15:37:26.019Z,25.80
2019-05-23T15:39:54.701Z,25.70
2019-05-23T15:42:23.426Z,25.60
2019-05-23T15:44:52.031Z,25.40
2019-05-23T15:47:22.689Z,25.40
2019-05-23T15:49:53.178Z,25.30
2019-05-23T15:52:23.230Z,25.20
2019-05-23T15:54:53.301Z,25.10
2019-05-23T15:57:40.262Z,25.10
2019-05-23T16:00:20.314Z,25.20
2019-05-23T16:02:51.058Z,25.00
2019-05-23T16:05:19.876Z,25.10
2019-05-23T16:07:50.333Z,25.10
2019-05-23T16:10:20.356Z,25.10
2019-05-23T16:12:48.757Z,25.10
2019-05-23T16:15:17.383Z,25.10
2019-05-23T16:17:45.861Z,25.10
2019-05-23T16:20:14.415Z,25.00
2019-05-23T16:22:44.668Z,25.10
2019-05-23T16:25:13.555Z,25.00
2019-05-23T16:27:41.976Z,24.90
2019-05-23T16:30:10.463Z,25.00
2019-05-23T16:32:38.883Z,24.90
2019-05-23T16:35:07.426Z,24.80
2019-05-23T16:37:35.862Z,24.60
2019-05-23T16:40:06.568Z,24.60
2019-05-23T16:42:34.977Z,24.60
2019-05-23T16:45:04.732Z,24.60
2019-05-23T16:47:33.145Z,24.70
2019-05-23T16:50:01.553Z,24.80
2019-05-23T16:52:30.034Z,24.80
2019-05-23T16:54:59.213Z,24.60
2019-05-23T16:57:29.337Z,24.60
2019-05-23T17:00:02.137Z,24.40
2019-05-23T17:02:35.109Z,24.40
2019-05-23T17:05:25.032Z,24.40
2019-05-23T17:08:03.959Z,24.30
2019-05-23T17:10:49.264Z,24.20
2019-05-23T17:13:22.297Z,24.20
2019-05-23T17:15:55.055Z,24.10
2019-05-23T17:18:43.204Z,24.00
2019-05-23T17:21:19.286Z,24.00
2019-05-23T17:23:49.670Z,24.00
2019-05-23T17:26:25.762Z,24.00
2019-05-23T17:28:56.032Z,24.00
2019-05-23T17:31:29.172Z,24.00
2019-05-23T17:33:57.666Z,24.00
2019-05-23T17:36:26.219Z,23.90
2019-05-23T17:38:55.298Z,23.90
2019-05-23T17:41:24.532Z,23.80
2019-05-23T17:43:53.304Z,23.70
2019-05-23T17:46:22.011Z,23.60
2019-05-23T17:48:50.948Z,23.70
2019-05-23T17:51:19.653Z,23.60
2019-05-23T17:53:48.339Z,23.60
2019-05-23T17:56:17.099Z,23.50
2019-05-23T17:58:45.596Z,23.50
2019-05-23T18:01:14.441Z,23.40
2019-05-23T18:03:43.017Z,23.40
2019-05-23T18:06:12.017Z,23.40
2019-05-23T18:08:41.065Z,23.30
2019-05-23T18:11:10.115Z,23.20
2019-05-23T18:13:38.920Z,23.20
2019-05-23T18:16:07.651Z,23.20
2019-05-23T18:18:36.192Z,23.20
2019-05-23T18:21:05.241Z,23.10
2019-05-23T18:23:34.335Z,23.00
2019-05-23T18:26:03.020Z,22.90
2019-05-23T18:28:32.425Z,22.80
2019-05-23T18:31:07.364Z,22.70
2019-05-23T18:33:33.844Z,22.60
2019-05-23T18:36:03.658Z,22.70
2019-05-23T18:38:32.672Z,22.70
2019-05-23T18:41:05.636Z,22.70
2019-05-23T18:43:32.922Z,22.60
2019-05-23T18:46:05.793Z,22.50
2019-05-23T18:48:34.189Z,22.40
2019-05-23T18:51:02.946Z,22.30
2019-05-23T18:53:31.340Z,22.20
2019-05-23T18:55:59.929Z,22.10
2019-05-23T18:58:28.402Z,21.90
2019-05-23T19:01:03.509Z,21.90
2019-05-23T19:03:32.900Z,21.80
2019-05-23T19:06:01.800Z,21.70
2019-05-23T19:08:30.653Z,21.60
2019-05-23T19:10:59.807Z,21.50
2019-05-23T19:13:28.498Z,21.40
2019-05-23T19:15:56.978Z,21.30
2019-05-23T19:18:26.028Z,21.20
2019-05-23T19:20:55.821Z,21.10
2019-05-23T19:23:25.145Z,21.50
2019-05-23T19:25:54.910Z,21.30
2019-05-23T19:28:24.683Z,21.10
2019-05-23T19:30:54.024Z,21.00
2019-05-23T19:33:23.133Z,20.80
2019-05-23T19:35:51.648Z,20.70
2019-05-23T19:38:20.123Z,20.50
2019-05-23T19:40:49.270Z,20.50
2019-05-23T19:43:19.421Z,20.30
2019-05-23T19:45:47.978Z,20.20
2019-05-23T19:48:17.440Z,20.10
2019-05-23T19:50:46.003Z,20.10
2019-05-23T19:53:14.463Z,20.00
2019-05-23T19:55:42.866Z,19.90
2019-05-23T19:58:11.461Z,19.80
2019-05-23T20:00:40.738Z,19.70
2019-05-23T20:03:09.226Z,19.60
2019-05-23T20:05:39.160Z,19.60
2019-05-23T20:08:07.939Z,19.50
2019-05-23T20:10:37.622Z,19.40
2019-05-23T20:13:06.192Z,19.30
2019-05-23T20:15:34.766Z,19.20
2019-05-23T20:18:03.514Z,19.10
2019-05-23T20:20:33.565Z,19.00
2019-05-23T20:23:02.272Z,19.00
2019-05-23T20:25:31.268Z,18.90
2019-05-23T20:27:59.683Z,18.80
2019-05-23T20:30:47.068Z,18.70
2019-05-23T20:33:15.756Z,18.60
2019-05-23T20:35:44.475Z,18.50
2019-05-23T20:38:13.373Z,18.40
2019-05-23T20:40:42.263Z,18.40
2019-05-23T20:43:10.677Z,18.30
2019-05-23T20:45:39.472Z,18.20
2019-05-23T20:48:08.227Z,18.20
2019-05-23T20:50:36.982Z,18.00
2019-05-23T20:53:05.849Z,18.00
2019-05-23T20:55:34.921Z,17.90
2019-05-23T20:58:05.061Z,17.80
2019-05-23T21:00:35.675Z,17.70
2019-05-23T21:03:05.234Z,17.60
2019-05-23T21:05:33.645Z,17.60
2019-05-23T21:08:02.124Z,17.50
2019-05-23T21:10:42.360Z,17.40
2019-05-23T21:13:10.939Z,17.30
2019-05-23T21:15:40.861Z,17.30
2019-05-23T21:18:09.720Z,17.20
2019-05-23T21:20:38.185Z,17.10
2019-05-23T21:23:06.775Z,17.10
2019-05-23T21:25:36.963Z,17.10
2019-05-23T21:28:05.552Z,17.00
2019-05-23T21:30:34.035Z,17.00
2019-05-23T21:33:02.451Z,16.90
2019-05-23T21:35:31.594Z,16.90
2019-05-23T21:38:00.072Z,16.80
2019-05-23T21:40:37.482Z,16.80
2019-05-23T21:43:05.960Z,16.80
2019-05-23T21:45:34.579Z,16.70
2019-05-23T21:48:03.228Z,16.70
2019-05-23T21:50:31.827Z,16.60
2019-05-23T21:53:00.271Z,16.50
2019-05-23T21:55:39.407Z,16.50
2019-05-23T21:58:09.077Z,16.40
2019-05-23T22:01:06.525Z,16.40
2019-05-23T22:03:52.935Z,16.30
2019-05-23T22:06:24.596Z,16.20
2019-05-23T22:08:53.024Z,16.10
2019-05-23T22:11:21.514Z,16.10
2019-05-23T22:13:50.011Z,16.00
2019-05-23T22:16:18.935Z,16.00
2019-05-23T22:18:47.369Z,16.00
2019-05-23T22:21:16.330Z,15.90
2019-05-23T22:23:44.808Z,15.80
2019-05-23T22:26:13.406Z,15.70
2019-05-23T22:28:41.827Z,15.60
2019-05-23T22:31:10.909Z,15.60
2019-05-23T22:33:47.218Z,15.50
2019-05-23T22:36:16.172Z,15.40
2019-05-23T22:38:44.599Z,15.30
2019-05-23T22:41:13.067Z,15.30
2019-05-23T22:43:41.519Z,15.20
2019-05-23T22:46:10.364Z,15.10
2019-05-23T22:48:39.051Z,15.10
2019-05-23T22:51:07.548Z,15.00
2019-05-23T22:53:35.951Z,14.80
2019-05-23T22:56:04.644Z,14.70
2019-05-23T22:58:33.413Z,14.60
2019-05-23T23:01:02.090Z,14.50
2019-05-23T23:03:30.500Z,14.50
2019-05-23T23:05:58.937Z,14.40
2019-05-23T23:08:28.009Z,14.30
2019-05-23T23:10:56.440Z,14.30
2019-05-23T23:13:38.108Z,14.20
2019-05-23T23:15:55.552Z,14.20
2019-05-23T23:18:24.034Z,14.20
2019-05-23T23:20:53.531Z,14.10
2019-05-23T23:23:21.951Z,14.10
2019-05-23T23:25:50.364Z,14.00
2019-05-23T23:28:18.808Z,14.00
2019-05-23T23:30:49.255Z,13.90
2019-05-23T23:33:18.196Z,13.90
2019-05-23T23:35:46.599Z,13.80
2019-05-23T23:38:15.527Z,13.80
2019-05-23T23:40:44.181Z,13.70
2019-05-23T23:43:12.614Z,13.60
2019-05-23T23:45:59.272Z,13.60
2019-05-23T23:48:46.266Z,13.60
2019-05-23T23:51:32.595Z,13.60
2019-05-23T23:54:19.107Z,13.50
2019-05-23T23:57:05.550Z,13.40
2019-05-23T23:59:33.520Z,13.40
